sensor_id;sensor_type;location;lat;lon;timestamp;P1;durP1;ratioP1;P2;durP2;ratioP2
13943;SDS011;7044;53.286;8.534;2023-11-22T00:00:44;6.13;;;4.27;;
13943;SDS011;7044;53.286;8.534;2023-11-22T00:03:11;6.53;;;3.90;;
13943;SDS011;7044;53.286;8.534;2023-11-22T00:05:37;6.50;;;3.20;;
13943;SDS011;7044;53.286;8.534;2023-11-22T00:08:04;5.53;;;3.47;;
13943;SDS011;7044;53.286;8.534;2023-11-22T00:10:33;8.70;;;3.83;;
13943;SDS011;7044;53.286;8.534;2023-11-22T00:13:00;6.93;;;4.50;;
13943;SDS011;7044;53.286;8.534;2023-11-22T00:15:27;8.20;;;4.07;;
13943;SDS011;7044;53.286;8.534;2023-11-22T00:17:54;3.73;;;3.10;;
13943;SDS011;7044;53.286;8.534;2023-11-22T00:20:22;5.40;;;3.20;;
13943;SDS011;7044;53.286;8.534;2023-11-22T00:22:49;5.57;;;3.30;;
13943;SDS011;7044;53.286;8.534;2023-11-22T00:25:16;5.27;;;3.20;;
13943;SDS011;7044;53.286;8.534;2023-11-22T00:27:45;8.17;;;3.47;;
13943;SDS011;7044;53.286;8.534;2023-11-22T00:30:13;5.93;;;4.00;;
13943;SDS011;7044;53.286;8.534;2023-11-22T00:32:40;5.13;;;3.57;;
13943;SDS011;7044;53.286;8.534;2023-11-22T00:35:07;8.60;;;3.90;;
13943;SDS011;7044;53.286;8.534;2023-11-22T00:37:34;7.10;;;4.30;;
13943;SDS011;7044;53.286;8.534;2023-11-22T00:40:00;8.30;;;3.93;;
13943;SDS011;7044;53.286;8.534;2023-11-22T00:42:35;5.23;;;3.80;;
13943;SDS011;7044;53.286;8.534;2023-11-22T00:45:04;6.23;;;3.70;;
13943;SDS011;7044;53.286;8.534;2023-11-22T00:47:32;5.70;;;3.37;;
13943;SDS011;7044;53.286;8.534;2023-11-22T00:49:58;6.53;;;3.63;;
13943;SDS011;7044;53.286;8.534;2023-11-22T00:52:26;5.40;;;3.40;;
13943;SDS011;7044;53.286;8.534;2023-11-22T00:54:53;8.57;;;3.70;;
13943;SDS011;7044;53.286;8.534;2023-11-22T00:57:20;8.00;;;3.80;;
13943;SDS011;7044;53.286;8.534;2023-11-22T00:59:47;5.80;;;3.90;;
13943;SDS011;7044;53.286;8.534;2023-11-22T01:02:16;5.37;;;3.33;;
13943;SDS011;7044;53.286;8.534;2023-11-22T01:04:43;5.63;;;3.57;;
13943;SDS011;7044;53.286;8.534;2023-11-22T01:07:10;6.60;;;3.70;;
13943;SDS011;7044;53.286;8.534;2023-11-22T01:09:37;6.00;;;3.37;;
13943;SDS011;7044;53.286;8.534;2023-11-22T01:12:04;7.27;;;3.60;;
13943;SDS011;7044;53.286;8.534;2023-11-22T01:14:32;7.60;;;3.73;;
13943;SDS011;7044;53.286;8.534;2023-11-22T01:16:59;5.77;;;3.70;;
13943;SDS011;7044;53.286;8.534;2023-11-22T01:19:27;6.57;;;4.00;;
13943;SDS011;7044;53.286;8.534;2023-11-22T01:21:54;5.57;;;3.57;;
13943;SDS011;7044;53.286;8.534;2023-11-22T01:24:21;7.07;;;3.60;;
13943;SDS011;7044;53.286;8.534;2023-11-22T01:26:48;6.77;;;3.90;;
13943;SDS011;7044;53.286;8.534;2023-11-22T01:29:15;5.10;;;3.80;;
13943;SDS011;7044;53.286;8.534;2023-11-22T01:31:42;5.50;;;3.43;;
13943;SDS011;7044;53.286;8.534;2023-11-22T01:34:08;6.37;;;3.83;;
13943;SDS011;7044;53.286;8.534;2023-11-22T01:36:37;5.70;;;3.80;;
13943;SDS011;7044;53.286;8.534;2023-11-22T01:39:07;6.10;;;3.40;;
13943;SDS011;7044;53.286;8.534;2023-11-22T01:41:35;7.10;;;3.87;;
13943;SDS011;7044;53.286;8.534;2023-11-22T01:44:01;5.37;;;3.63;;
13943;SDS011;7044;53.286;8.534;2023-11-22T01:46:28;4.07;;;3.33;;
13943;SDS011;7044;53.286;8.534;2023-11-22T01:48:56;6.37;;;3.77;;
13943;SDS011;7044;53.286;8.534;2023-11-22T01:51:23;4.23;;;3.13;;
13943;SDS011;7044;53.286;8.534;2023-11-22T01:53:52;5.03;;;3.73;;
13943;SDS011;7044;53.286;8.534;2023-11-22T01:56:22;7.50;;;3.70;;
13943;SDS011;7044;53.286;8.534;2023-11-22T01:58:51;6.30;;;3.43;;
13943;SDS011;7044;53.286;8.534;2023-11-22T02:01:19;6.77;;;3.83;;
13943;SDS011;7044;53.286;8.534;2023-11-22T02:03:46;6.60;;;3.53;;
13943;SDS011;7044;53.286;8.534;2023-11-22T02:06:14;6.17;;;3.43;;
13943;SDS011;7044;53.286;8.534;2023-11-22T02:08:42;5.83;;;3.80;;
13943;SDS011;7044;53.286;8.534;2023-11-22T02:11:10;5.03;;;3.80;;
13943;SDS011;7044;53.286;8.534;2023-11-22T02:13:37;5.67;;;3.97;;
13943;SDS011;7044;53.286;8.534;2023-11-22T02:16:04;5.10;;;3.20;;
13943;SDS011;7044;53.286;8.534;2023-11-22T02:18:31;5.87;;;3.63;;
13943;SDS011;7044;53.286;8.534;2023-11-22T02:20:59;4.77;;;3.37;;
13943;SDS011;7044;53.286;8.534;2023-11-22T02:23:28;9.47;;;3.70;;
13943;SDS011;7044;53.286;8.534;2023-11-22T02:25:55;6.47;;;3.53;;
13943;SDS011;7044;53.286;8.534;2023-11-22T02:28:23;5.77;;;3.50;;
13943;SDS011;7044;53.286;8.534;2023-11-22T02:30:50;7.70;;;3.53;;
13943;SDS011;7044;53.286;8.534;2023-11-22T02:33:17;5.23;;;3.60;;
13943;SDS011;7044;53.286;8.534;2023-11-22T02:35:44;5.20;;;3.63;;
13943;SDS011;7044;53.286;8.534;2023-11-22T02:38:11;5.43;;;3.50;;
13943;SDS011;7044;53.286;8.534;2023-11-22T02:40:39;5.80;;;3.57;;
13943;SDS011;7044;53.286;8.534;2023-11-22T02:43:06;6.13;;;3.27;;
13943;SDS011;7044;53.286;8.534;2023-11-22T02:45:34;5.30;;;3.33;;
13943;SDS011;7044;53.286;8.534;2023-11-22T02:48:01;6.17;;;3.80;;
13943;SDS011;7044;53.286;8.534;2023-11-22T02:50:28;5.00;;;3.60;;
13943;SDS011;7044;53.286;8.534;2023-11-22T02:52:56;5.37;;;3.23;;
13943;SDS011;7044;53.286;8.534;2023-11-22T02:55:23;8.60;;;4.20;;
13943;SDS011;7044;53.286;8.534;2023-11-22T02:57:52;5.43;;;3.60;;
13943;SDS011;7044;53.286;8.534;2023-11-22T03:00:19;5.23;;;3.23;;
13943;SDS011;7044;53.286;8.534;2023-11-22T03:02:46;7.30;;;3.73;;
13943;SDS011;7044;53.286;8.534;2023-11-22T03:05:19;5.97;;;3.37;;
13943;SDS011;7044;53.286;8.534;2023-11-22T03:07:46;5.47;;;3.40;;
13943;SDS011;7044;53.286;8.534;2023-11-22T03:10:16;7.03;;;3.73;;
13943;SDS011;7044;53.286;8.534;2023-11-22T03:12:44;6.20;;;3.80;;
13943;SDS011;7044;53.286;8.534;2023-11-22T03:15:12;10.83;;;4.07;;
13943;SDS011;7044;53.286;8.534;2023-11-22T03:17:39;9.53;;;3.60;;
13943;SDS011;7044;53.286;8.534;2023-11-22T03:20:06;6.40;;;3.43;;
13943;SDS011;7044;53.286;8.534;2023-11-22T03:22:36;5.53;;;3.70;;
13943;SDS011;7044;53.286;8.534;2023-11-22T03:25:03;8.53;;;3.40;;
13943;SDS011;7044;53.286;8.534;2023-11-22T03:27:30;4.77;;;3.53;;
13943;SDS011;7044;53.286;8.534;2023-11-22T03:29:57;7.33;;;3.73;;
13943;SDS011;7044;53.286;8.534;2023-11-22T03:32:27;4.87;;;3.20;;
13943;SDS011;7044;53.286;8.534;2023-11-22T03:34:54;4.83;;;3.30;;
13943;SDS011;7044;53.286;8.534;2023-11-22T03:37:22;6.63;;;3.40;;
13943;SDS011;7044;53.286;8.534;2023-11-22T03:39:49;4.90;;;3.27;;
13943;SDS011;7044;53.286;8.534;2023-11-22T03:42:16;6.60;;;3.93;;
13943;SDS011;7044;53.286;8.534;2023-11-22T03:44:43;8.17;;;3.83;;
13943;SDS011;7044;53.286;8.534;2023-11-22T03:47:10;6.97;;;4.47;;
13943;SDS011;7044;53.286;8.534;2023-11-22T03:49:39;5.33;;;4.00;;
13943;SDS011;7044;53.286;8.534;2023-11-22T03:52:06;13.73;;;4.50;;
13943;SDS011;7044;53.286;8.534;2023-11-22T03:54:34;14.27;;;5.10;;
13943;SDS011;7044;53.286;8.534;2023-11-22T03:57:01;21.93;;;4.73;;
13943;SDS011;7044;53.286;8.534;2023-11-22T03:59:28;6.10;;;4.10;;
13943;SDS011;7044;53.286;8.534;2023-11-22T04:01:55;8.17;;;3.73;;
13943;SDS011;7044;53.286;8.534;2023-11-22T04:04:22;12.10;;;4.97;;
13943;SDS011;7044;53.286;8.534;2023-11-22T04:06:50;7.43;;;4.30;;
13943;SDS011;7044;53.286;8.534;2023-11-22T04:09:17;7.17;;;3.30;;
13943;SDS011;7044;53.286;8.534;2023-11-22T04:11:45;3.50;;;2.50;;
13943;SDS011;7044;53.286;8.534;2023-11-22T04:14:12;9.03;;;3.13;;
13943;SDS011;7044;53.286;8.534;2023-11-22T04:16:39;7.07;;;3.60;;
13943;SDS011;7044;53.286;8.534;2023-11-22T04:19:05;6.60;;;3.73;;
13943;SDS011;7044;53.286;8.534;2023-11-22T04:21:32;8.07;;;3.67;;
13943;SDS011;7044;53.286;8.534;2023-11-22T04:24:00;5.60;;;3.73;;
13943;SDS011;7044;53.286;8.534;2023-11-22T04:26:27;4.97;;;3.43;;
13943;SDS011;7044;53.286;8.534;2023-11-22T04:28:54;5.20;;;3.53;;
13943;SDS011;7044;53.286;8.534;2023-11-22T04:31:21;4.23;;;3.10;;
13943;SDS011;7044;53.286;8.534;2023-11-22T04:33:47;5.27;;;3.57;;
13943;SDS011;7044;53.286;8.534;2023-11-22T04:36:15;4.63;;;3.30;;
13943;SDS011;7044;53.286;8.534;2023-11-22T04:38:42;5.87;;;3.20;;
13943;SDS011;7044;53.286;8.534;2023-11-22T04:41:11;4.50;;;3.43;;
13943;SDS011;7044;53.286;8.534;2023-11-22T04:43:38;6.10;;;3.90;;
13943;SDS011;7044;53.286;8.534;2023-11-22T04:46:05;5.87;;;3.70;;
13943;SDS011;7044;53.286;8.534;2023-11-22T04:48:33;8.07;;;4.40;;
13943;SDS011;7044;53.286;8.534;2023-11-22T04:51:02;5.47;;;3.97;;
13943;SDS011;7044;53.286;8.534;2023-11-22T04:53:28;4.93;;;3.83;;
13943;SDS011;7044;53.286;8.534;2023-11-22T04:55:55;9.53;;;3.73;;
13943;SDS011;7044;53.286;8.534;2023-11-22T04:58:23;13.43;;;3.73;;
13943;SDS011;7044;53.286;8.534;2023-11-22T05:00:50;5.83;;;3.67;;
13943;SDS011;7044;53.286;8.534;2023-11-22T05:03:17;4.37;;;3.70;;
13943;SDS011;7044;53.286;8.534;2023-11-22T05:05:44;7.67;;;3.80;;
13943;SDS011;7044;53.286;8.534;2023-11-22T05:08:11;5.47;;;3.27;;
13943;SDS011;7044;53.286;8.534;2023-11-22T05:10:38;6.20;;;3.93;;
13943;SDS011;7044;53.286;8.534;2023-11-22T05:13:05;6.33;;;4.00;;
13943;SDS011;7044;53.286;8.534;2023-11-22T05:15:34;6.47;;;3.70;;
13943;SDS011;7044;53.286;8.534;2023-11-22T05:18:00;4.60;;;3.43;;
13943;SDS011;7044;53.286;8.534;2023-11-22T05:20:27;5.20;;;3.37;;
13943;SDS011;7044;53.286;8.534;2023-11-22T05:22:54;4.83;;;3.40;;
13943;SDS011;7044;53.286;8.534;2023-11-22T05:25:21;7.63;;;3.43;;
13943;SDS011;7044;53.286;8.534;2023-11-22T05:27:47;5.13;;;3.33;;
13943;SDS011;7044;53.286;8.534;2023-11-22T05:30:15;4.87;;;3.50;;
13943;SDS011;7044;53.286;8.534;2023-11-22T05:32:44;12.03;;;4.00;;
13943;SDS011;7044;53.286;8.534;2023-11-22T05:35:10;7.73;;;3.60;;
13943;SDS011;7044;53.286;8.534;2023-11-22T05:37:37;5.10;;;3.67;;
13943;SDS011;7044;53.286;8.534;2023-11-22T05:40:05;5.87;;;4.20;;
13943;SDS011;7044;53.286;8.534;2023-11-22T05:42:34;5.03;;;3.30;;
13943;SDS011;7044;53.286;8.534;2023-11-22T05:45:02;11.90;;;4.30;;
13943;SDS011;7044;53.286;8.534;2023-11-22T05:47:30;5.47;;;4.10;;
13943;SDS011;7044;53.286;8.534;2023-11-22T05:49:59;14.07;;;6.03;;
13943;SDS011;7044;53.286;8.534;2023-11-22T05:52:25;26.53;;;9.63;;
13943;SDS011;7044;53.286;8.534;2023-11-22T05:54:53;27.70;;;9.27;;
13943;SDS011;7044;53.286;8.534;2023-11-22T05:57:21;28.87;;;10.00;;
13943;SDS011;7044;53.286;8.534;2023-11-22T05:59:48;40.33;;;14.07;;
13943;SDS011;7044;53.286;8.534;2023-11-22T06:02:15;46.57;;;14.90;;
13943;SDS011;7044;53.286;8.534;2023-11-22T06:04:41;29.13;;;12.13;;
13943;SDS011;7044;53.286;8.534;2023-11-22T06:07:10;33.00;;;14.00;;
13943;SDS011;7044;53.286;8.534;2023-11-22T06:09:36;15.13;;;6.20;;
13943;SDS011;7044;53.286;8.534;2023-11-22T06:12:04;9.17;;;4.90;;
13943;SDS011;7044;53.286;8.534;2023-11-22T06:14:31;10.63;;;4.30;;
13943;SDS011;7044;53.286;8.534;2023-11-22T06:16:58;8.43;;;4.20;;
13943;SDS011;7044;53.286;8.534;2023-11-22T06:19:24;6.27;;;3.93;;
13943;SDS011;7044;53.286;8.534;2023-11-22T06:21:51;10.50;;;3.90;;
13943;SDS011;7044;53.286;8.534;2023-11-22T06:24:19;7.83;;;3.60;;
13943;SDS011;7044;53.286;8.534;2023-11-22T06:26:46;6.10;;;3.67;;
13943;SDS011;7044;53.286;8.534;2023-11-22T06:29:14;6.10;;;4.10;;
13943;SDS011;7044;53.286;8.534;2023-11-22T06:31:41;6.17;;;3.80;;
13943;SDS011;7044;53.286;8.534;2023-11-22T06:34:08;5.37;;;4.00;;
13943;SDS011;7044;53.286;8.534;2023-11-22T06:36:35;6.30;;;3.90;;
13943;SDS011;7044;53.286;8.534;2023-11-22T06:39:01;7.63;;;3.97;;
13943;SDS011;7044;53.286;8.534;2023-11-22T06:41:31;6.03;;;4.10;;
13943;SDS011;7044;53.286;8.534;2023-11-22T06:43:57;6.53;;;3.87;;
13943;SDS011;7044;53.286;8.534;2023-11-22T06:46:24;4.83;;;3.40;;
13943;SDS011;7044;53.286;8.534;2023-11-22T06:48:52;5.87;;;3.67;;
13943;SDS011;7044;53.286;8.534;2023-11-22T06:51:19;6.67;;;3.77;;
13943;SDS011;7044;53.286;8.534;2023-11-22T06:53:47;6.30;;;3.80;;
13943;SDS011;7044;53.286;8.534;2023-11-22T06:56:14;8.87;;;3.93;;
13943;SDS011;7044;53.286;8.534;2023-11-22T06:58:42;6.20;;;3.60;;
13943;SDS011;7044;53.286;8.534;2023-11-22T07:01:09;6.00;;;3.83;;
13943;SDS011;7044;53.286;8.534;2023-11-22T07:03:36;7.70;;;3.90;;
13943;SDS011;7044;53.286;8.534;2023-11-22T07:06:04;6.50;;;3.80;;
13943;SDS011;7044;53.286;8.534;2023-11-22T07:08:31;5.33;;;3.43;;
13943;SDS011;7044;53.286;8.534;2023-11-22T07:10:57;5.30;;;3.80;;
13943;SDS011;7044;53.286;8.534;2023-11-22T07:13:24;9.53;;;3.73;;
13943;SDS011;7044;53.286;8.534;2023-11-22T07:15:53;6.70;;;4.10;;
13943;SDS011;7044;53.286;8.534;2023-11-22T07:18:20;9.10;;;4.67;;
13943;SDS011;7044;53.286;8.534;2023-11-22T07:20:49;6.87;;;4.03;;
13943;SDS011;7044;53.286;8.534;2023-11-22T07:23:18;6.10;;;4.17;;
13943;SDS011;7044;53.286;8.534;2023-11-22T07:25:46;5.50;;;3.80;;
13943;SDS011;7044;53.286;8.534;2023-11-22T07:28:13;6.00;;;4.17;;
13943;SDS011;7044;53.286;8.534;2023-11-22T07:30:40;8.93;;;5.40;;
13943;SDS011;7044;53.286;8.534;2023-11-22T07:33:08;6.77;;;4.13;;
13943;SDS011;7044;53.286;8.534;2023-11-22T07:35:36;7.30;;;4.23;;
13943;SDS011;7044;53.286;8.534;2023-11-22T07:38:04;6.07;;;4.33;;
13943;SDS011;7044;53.286;8.534;2023-11-22T07:40:32;6.60;;;4.17;;
13943;SDS011;7044;53.286;8.534;2023-11-22T07:43:00;8.17;;;4.37;;
13943;SDS011;7044;53.286;8.534;2023-11-22T07:45:28;11.17;;;4.13;;
13943;SDS011;7044;53.286;8.534;2023-11-22T07:47:55;7.10;;;4.27;;
13943;SDS011;7044;53.286;8.534;2023-11-22T07:50:25;10.03;;;4.23;;
13943;SDS011;7044;53.286;8.534;2023-11-22T07:52:52;5.93;;;3.73;;
13943;SDS011;7044;53.286;8.534;2023-11-22T07:55:19;6.20;;;4.50;;
13943;SDS011;7044;53.286;8.534;2023-11-22T07:57:47;8.27;;;4.63;;
13943;SDS011;7044;53.286;8.534;2023-11-22T08:00:16;14.13;;;4.57;;
13943;SDS011;7044;53.286;8.534;2023-11-22T08:02:44;7.13;;;4.43;;
13943;SDS011;7044;53.286;8.534;2023-11-22T08:05:11;5.40;;;4.03;;
13943;SDS011;7044;53.286;8.534;2023-11-22T08:07:41;6.57;;;4.60;;
13943;SDS011;7044;53.286;8.534;2023-11-22T08:10:11;5.50;;;3.63;;
13943;SDS011;7044;53.286;8.534;2023-11-22T08:12:44;8.00;;;5.00;;
13943;SDS011;7044;53.286;8.534;2023-11-22T08:15:11;11.57;;;4.60;;
13943;SDS011;7044;53.286;8.534;2023-11-22T08:17:40;9.97;;;4.07;;
13943;SDS011;7044;53.286;8.534;2023-11-22T08:20:07;8.33;;;5.20;;
13943;SDS011;7044;53.286;8.534;2023-11-22T08:22:38;8.10;;;5.30;;
13943;SDS011;7044;53.286;8.534;2023-11-22T08:25:07;6.17;;;4.70;;
13943;SDS011;7044;53.286;8.534;2023-11-22T08:27:37;11.73;;;5.23;;
13943;SDS011;7044;53.286;8.534;2023-11-22T08:30:06;8.53;;;4.93;;
13943;SDS011;7044;53.286;8.534;2023-11-22T08:32:38;7.47;;;4.80;;
13943;SDS011;7044;53.286;8.534;2023-11-22T08:35:06;13.73;;;6.37;;
13943;SDS011;7044;53.286;8.534;2023-11-22T08:37:33;14.23;;;7.83;;
13943;SDS011;7044;53.286;8.534;2023-11-22T08:40:03;10.50;;;6.70;;
13943;SDS011;7044;53.286;8.534;2023-11-22T08:42:32;7.67;;;5.27;;
13943;SDS011;7044;53.286;8.534;2023-11-22T08:45:00;6.87;;;5.17;;
13943;SDS011;7044;53.286;8.534;2023-11-22T08:47:28;7.43;;;5.00;;
13943;SDS011;7044;53.286;8.534;2023-11-22T08:49:55;8.43;;;5.63;;
13943;SDS011;7044;53.286;8.534;2023-11-22T08:52:22;9.77;;;5.47;;
13943;SDS011;7044;53.286;8.534;2023-11-22T08:54:49;7.10;;;4.80;;
13943;SDS011;7044;53.286;8.534;2023-11-22T08:57:17;9.07;;;5.03;;
13943;SDS011;7044;53.286;8.534;2023-11-22T08:59:45;11.27;;;5.20;;
13943;SDS011;7044;53.286;8.534;2023-11-22T09:02:12;8.20;;;5.27;;
13943;SDS011;7044;53.286;8.534;2023-11-22T09:04:40;6.90;;;4.87;;
13943;SDS011;7044;53.286;8.534;2023-11-22T09:07:07;7.93;;;5.13;;
13943;SDS011;7044;53.286;8.534;2023-11-22T09:09:35;8.30;;;5.23;;
13943;SDS011;7044;53.286;8.534;2023-11-22T09:12:02;15.30;;;5.77;;
13943;SDS011;7044;53.286;8.534;2023-11-22T09:14:29;16.87;;;8.00;;
13943;SDS011;7044;53.286;8.534;2023-11-22T09:16:57;11.93;;;6.67;;
13943;SDS011;7044;53.286;8.534;2023-11-22T09:19:26;13.67;;;5.17;;
13943;SDS011;7044;53.286;8.534;2023-11-22T09:21:53;10.77;;;6.27;;
13943;SDS011;7044;53.286;8.534;2023-11-22T09:24:20;12.87;;;6.87;;
13943;SDS011;7044;53.286;8.534;2023-11-22T09:26:47;13.27;;;6.53;;
13943;SDS011;7044;53.286;8.534;2023-11-22T09:29:14;7.13;;;5.33;;
13943;SDS011;7044;53.286;8.534;2023-11-22T09:31:41;11.63;;;5.67;;
13943;SDS011;7044;53.286;8.534;2023-11-22T09:34:09;9.90;;;5.87;;
13943;SDS011;7044;53.286;8.534;2023-11-22T09:36:36;9.03;;;5.60;;
13943;SDS011;7044;53.286;8.534;2023-11-22T09:39:03;8.17;;;5.40;;
13943;SDS011;7044;53.286;8.534;2023-11-22T09:41:33;8.13;;;5.70;;
13943;SDS011;7044;53.286;8.534;2023-11-22T09:44:00;11.07;;;5.37;;
13943;SDS011;7044;53.286;8.534;2023-11-22T09:46:28;7.73;;;5.37;;
13943;SDS011;7044;53.286;8.534;2023-11-22T09:48:58;8.07;;;5.10;;
13943;SDS011;7044;53.286;8.534;2023-11-22T09:51:30;7.57;;;5.10;;
13943;SDS011;7044;53.286;8.534;2023-11-22T09:54:03;9.60;;;5.33;;
13943;SDS011;7044;53.286;8.534;2023-11-22T09:56:32;16.30;;;5.20;;
13943;SDS011;7044;53.286;8.534;2023-11-22T09:59:02;7.87;;;4.97;;
13943;SDS011;7044;53.286;8.534;2023-11-22T10:01:31;8.43;;;5.03;;
13943;SDS011;7044;53.286;8.534;2023-11-22T10:03:58;9.90;;;4.87;;
13943;SDS011;7044;53.286;8.534;2023-11-22T10:06:26;7.33;;;4.60;;
13943;SDS011;7044;53.286;8.534;2023-11-22T10:08:59;8.20;;;4.37;;
13943;SDS011;7044;53.286;8.534;2023-11-22T10:11:26;5.30;;;3.97;;
13943;SDS011;7044;53.286;8.534;2023-11-22T10:13:54;5.97;;;4.07;;
13943;SDS011;7044;53.286;8.534;2023-11-22T10:16:22;6.53;;;4.17;;
13943;SDS011;7044;53.286;8.534;2023-11-22T10:18:49;4.73;;;4.00;;
13943;SDS011;7044;53.286;8.534;2023-11-22T10:21:19;8.63;;;4.17;;
13943;SDS011;7044;53.286;8.534;2023-11-22T10:23:47;6.40;;;3.63;;
13943;SDS011;7044;53.286;8.534;2023-11-22T10:26:18;7.67;;;4.00;;
13943;SDS011;7044;53.286;8.534;2023-11-22T10:28:44;5.60;;;3.60;;
13943;SDS011;7044;53.286;8.534;2023-11-22T10:31:11;7.70;;;4.07;;
13943;SDS011;7044;53.286;8.534;2023-11-22T10:33:39;5.20;;;3.47;;
13943;SDS011;7044;53.286;8.534;2023-11-22T10:36:07;5.87;;;3.60;;
13943;SDS011;7044;53.286;8.534;2023-11-22T10:38:34;7.40;;;4.33;;
13943;SDS011;7044;53.286;8.534;2023-11-22T10:41:03;6.47;;;4.00;;
13943;SDS011;7044;53.286;8.534;2023-11-22T10:43:32;4.87;;;3.20;;
13943;SDS011;7044;53.286;8.534;2023-11-22T10:46:01;4.20;;;3.03;;
13943;SDS011;7044;53.286;8.534;2023-11-22T10:48:30;6.60;;;3.47;;
13943;SDS011;7044;53.286;8.534;2023-11-22T10:50:58;4.30;;;2.97;;
13943;SDS011;7044;53.286;8.534;2023-11-22T10:53:30;4.03;;;2.80;;
13943;SDS011;7044;53.286;8.534;2023-11-22T10:56:04;4.60;;;3.13;;
13943;SDS011;7044;53.286;8.534;2023-11-22T10:58:38;4.43;;;3.10;;
13943;SDS011;7044;53.286;8.534;2023-11-22T11:01:12;4.17;;;3.00;;
13943;SDS011;7044;53.286;8.534;2023-11-22T11:03:40;3.77;;;2.87;;
13943;SDS011;7044;53.286;8.534;2023-11-22T11:06:14;3.67;;;2.60;;
13943;SDS011;7044;53.286;8.534;2023-11-22T11:08:46;4.73;;;3.07;;
13943;SDS011;7044;53.286;8.534;2023-11-22T11:11:14;4.10;;;2.97;;
13943;SDS011;7044;53.286;8.534;2023-11-22T11:13:43;5.67;;;2.77;;
13943;SDS011;7044;53.286;8.534;2023-11-22T11:16:10;3.77;;;2.70;;
13943;SDS011;7044;53.286;8.534;2023-11-22T11:18:37;3.80;;;2.77;;
13943;SDS011;7044;53.286;8.534;2023-11-22T11:21:07;3.30;;;2.50;;
13943;SDS011;7044;53.286;8.534;2023-11-22T11:23:37;3.03;;;2.50;;
13943;SDS011;7044;53.286;8.534;2023-11-22T11:26:09;5.37;;;2.53;;
13943;SDS011;7044;53.286;8.534;2023-11-22T11:28:43;2.63;;;1.90;;
13943;SDS011;7044;53.286;8.534;2023-11-22T11:31:11;2.60;;;2.17;;
13943;SDS011;7044;53.286;8.534;2023-11-22T11:33:52;3.43;;;2.63;;
13943;SDS011;7044;53.286;8.534;2023-11-22T11:36:21;5.23;;;3.40;;
13943;SDS011;7044;53.286;8.534;2023-11-22T11:38:50;4.53;;;2.63;;
13943;SDS011;7044;53.286;8.534;2023-11-22T11:41:17;3.87;;;2.33;;
13943;SDS011;7044;53.286;8.534;2023-11-22T11:43:46;3.00;;;2.30;;
13943;SDS011;7044;53.286;8.534;2023-11-22T11:46:15;5.50;;;2.13;;
13943;SDS011;7044;53.286;8.534;2023-11-22T11:48:43;4.77;;;2.27;;
13943;SDS011;7044;53.286;8.534;2023-11-22T11:51:13;6.67;;;2.60;;
13943;SDS011;7044;53.286;8.534;2023-11-22T11:53:41;2.67;;;1.83;;
13943;SDS011;7044;53.286;8.534;2023-11-22T11:56:09;4.10;;;2.03;;
13943;SDS011;7044;53.286;8.534;2023-11-22T11:58:36;2.37;;;2.00;;
13943;SDS011;7044;53.286;8.534;2023-11-22T12:01:05;2.33;;;1.70;;
13943;SDS011;7044;53.286;8.534;2023-11-22T12:03:32;3.73;;;1.93;;
13943;SDS011;7044;53.286;8.534;2023-11-22T12:05:59;2.77;;;1.70;;
13943;SDS011;7044;53.286;8.534;2023-11-22T12:08:26;2.00;;;1.40;;
13943;SDS011;7044;53.286;8.534;2023-11-22T12:10:55;4.23;;;2.40;;
13943;SDS011;7044;53.286;8.534;2023-11-22T12:13:24;4.67;;;3.50;;
13943;SDS011;7044;53.286;8.534;2023-11-22T12:15:51;1.70;;;1.50;;
13943;SDS011;7044;53.286;8.534;2023-11-22T12:18:21;1.57;;;1.47;;
13943;SDS011;7044;53.286;8.534;2023-11-22T12:20:54;2.00;;;1.80;;
13943;SDS011;7044;53.286;8.534;2023-11-22T12:23:22;4.50;;;1.90;;
13943;SDS011;7044;53.286;8.534;2023-11-22T12:25:52;5.33;;;3.70;;
13943;SDS011;7044;53.286;8.534;2023-11-22T12:28:21;5.00;;;1.87;;
13943;SDS011;7044;53.286;8.534;2023-11-22T12:30:49;4.97;;;1.77;;
13943;SDS011;7044;53.286;8.534;2023-11-22T12:33:16;2.60;;;1.60;;
13943;SDS011;7044;53.286;8.534;2023-11-22T12:35:45;3.70;;;1.57;;
13943;SDS011;7044;53.286;8.534;2023-11-22T12:38:13;1.87;;;1.50;;
13943;SDS011;7044;53.286;8.534;2023-11-22T12:40:44;3.20;;;1.60;;
13943;SDS011;7044;53.286;8.534;2023-11-22T12:43:12;4.97;;;1.73;;
13943;SDS011;7044;53.286;8.534;2023-11-22T12:45:40;2.03;;;1.67;;
13943;SDS011;7044;53.286;8.534;2023-11-22T12:48:21;5.63;;;1.93;;
13943;SDS011;7044;53.286;8.534;2023-11-22T12:50:51;2.53;;;1.90;;
13943;SDS011;7044;53.286;8.534;2023-11-22T12:53:18;5.07;;;1.60;;
13943;SDS011;7044;53.286;8.534;2023-11-22T12:55:47;2.17;;;1.57;;
13943;SDS011;7044;53.286;8.534;2023-11-22T12:58:16;2.43;;;1.63;;
13943;SDS011;7044;53.286;8.534;2023-11-22T13:00:43;4.30;;;3.50;;
13943;SDS011;7044;53.286;8.534;2023-11-22T13:03:11;2.37;;;1.73;;
13943;SDS011;7044;53.286;8.534;2023-11-22T13:05:38;4.03;;;1.73;;
13943;SDS011;7044;53.286;8.534;2023-11-22T13:08:06;1.93;;;1.43;;
13943;SDS011;7044;53.286;8.534;2023-11-22T13:10:36;3.57;;;1.50;;
13943;SDS011;7044;53.286;8.534;2023-11-22T13:13:02;19.53;;;3.07;;
13943;SDS011;7044;53.286;8.534;2023-11-22T13:15:30;8.13;;;2.00;;
13943;SDS011;7044;53.286;8.534;2023-11-22T13:17:57;2.30;;;1.90;;
13943;SDS011;7044;53.286;8.534;2023-11-22T13:20:24;2.80;;;2.07;;
13943;SDS011;7044;53.286;8.534;2023-11-22T13:22:52;1.63;;;1.53;;
13943;SDS011;7044;53.286;8.534;2023-11-22T13:25:20;22.93;;;1.90;;
13943;SDS011;7044;53.286;8.534;2023-11-22T13:27:48;6.67;;;1.50;;
13943;SDS011;7044;53.286;8.534;2023-11-22T13:30:17;2.73;;;1.70;;
13943;SDS011;7044;53.286;8.534;2023-11-22T13:32:47;1.70;;;1.50;;
13943;SDS011;7044;53.286;8.534;2023-11-22T13:35:14;10.43;;;2.00;;
13943;SDS011;7044;53.286;8.534;2023-11-22T13:37:42;2.83;;;2.00;;
13943;SDS011;7044;53.286;8.534;2023-11-22T13:40:10;5.30;;;3.57;;
13943;SDS011;7044;53.286;8.534;2023-11-22T13:42:41;2.87;;;1.80;;
13943;SDS011;7044;53.286;8.534;2023-11-22T13:45:09;6.33;;;2.40;;
13943;SDS011;7044;53.286;8.534;2023-11-22T13:47:40;2.70;;;2.07;;
13943;SDS011;7044;53.286;8.534;2023-11-22T13:50:08;5.63;;;2.87;;
13943;SDS011;7044;53.286;8.534;2023-11-22T13:52:36;4.30;;;2.20;;
13943;SDS011;7044;53.286;8.534;2023-11-22T13:55:03;2.83;;;2.30;;
13943;SDS011;7044;53.286;8.534;2023-11-22T13:57:35;3.80;;;2.50;;
13943;SDS011;7044;53.286;8.534;2023-11-22T14:00:03;3.93;;;2.67;;
13943;SDS011;7044;53.286;8.534;2023-11-22T14:02:34;4.17;;;2.27;;
13943;SDS011;7044;53.286;8.534;2023-11-22T14:05:01;2.20;;;1.77;;
13943;SDS011;7044;53.286;8.534;2023-11-22T14:07:32;2.60;;;2.30;;
13943;SDS011;7044;53.286;8.534;2023-11-22T14:09:59;2.67;;;2.20;;
13943;SDS011;7044;53.286;8.534;2023-11-22T14:12:28;2.47;;;2.07;;
13943;SDS011;7044;53.286;8.534;2023-11-22T14:14:55;1.83;;;1.73;;
13943;SDS011;7044;53.286;8.534;2023-11-22T14:17:23;3.30;;;2.17;;
13943;SDS011;7044;53.286;8.534;2023-11-22T14:19:50;7.53;;;2.00;;
13943;SDS011;7044;53.286;8.534;2023-11-22T14:22:17;4.40;;;1.40;;
13943;SDS011;7044;53.286;8.534;2023-11-22T14:24:45;6.13;;;2.60;;
13943;SDS011;7044;53.286;8.534;2023-11-22T14:27:12;2.80;;;2.10;;
13943;SDS011;7044;53.286;8.534;2023-11-22T14:29:39;2.80;;;2.00;;
13943;SDS011;7044;53.286;8.534;2023-11-22T14:32:07;2.00;;;1.70;;
13943;SDS011;7044;53.286;8.534;2023-11-22T14:34:35;2.03;;;1.50;;
13943;SDS011;7044;53.286;8.534;2023-11-22T14:37:03;2.53;;;2.23;;
13943;SDS011;7044;53.286;8.534;2023-11-22T14:39:31;2.70;;;1.80;;
13943;SDS011;7044;53.286;8.534;2023-11-22T14:41:59;2.97;;;2.23;;
13943;SDS011;7044;53.286;8.534;2023-11-22T14:44:26;1.97;;;1.67;;
13943;SDS011;7044;53.286;8.534;2023-11-22T14:46:52;4.23;;;1.80;;
13943;SDS011;7044;53.286;8.534;2023-11-22T14:49:19;3.03;;;2.00;;
13943;SDS011;7044;53.286;8.534;2023-11-22T14:51:48;4.93;;;2.50;;
13943;SDS011;7044;53.286;8.534;2023-11-22T14:54:15;7.77;;;1.67;;
13943;SDS011;7044;53.286;8.534;2023-11-22T14:56:41;3.07;;;2.30;;
13943;SDS011;7044;53.286;8.534;2023-11-22T14:59:10;7.93;;;4.80;;
13943;SDS011;7044;53.286;8.534;2023-11-22T15:01:38;16.70;;;4.20;;
13943;SDS011;7044;53.286;8.534;2023-11-22T15:04:06;4.53;;;3.13;;